Time;durP1;ratioP1;P1;durP2;ratioP2;P2;SDS_P1;SDS_P2;PMS_P1;PMS_P2;Temp;Humidity;BMP_temperature;BMP_pressure;BME280_temperature;BME280_humidity;BME280_pressure;Samples;Min_cycle;Max_cycle;Signal;HPM_P1;HPM_P2
2022/10/25 00:00:38;;;;;;;73.80;51.15;;;19.40;78.40;;;;;;4934557;28;91449;-55
2022/10/25 00:03:09;;;;;;;73.45;50.95;;;19.40;78.40;;;;;;4925448;28;89917;-54
2022/10/25 00:05:35;;;;;;;72.53;51.05;;;19.40;78.40;;;;;;4916240;28;92240;-54
2022/10/25 00:08:02;;;;;;;73.90;50.90;;;19.40;78.40;;;;;;4937707;28;90940;-54
2022/10/25 00:10:28;;;;;;;73.38;50.97;;;19.40;78.40;;;;;;4941188;28;91855;-55
2022/10/25 00:12:53;;;;;;;73.07;51.13;;;19.30;78.40;;;;;;4942340;28;90411;-58
2022/10/25 00:15:19;;;;;;;73.75;51.15;;;19.30;78.40;;;;;;4947750;28;93247;-55
2022/10/25 00:17:45;;;;;;;73.57;51.20;;;19.30;78.40;;;;;;4947538;28;95013;-54
2022/10/25 00:20:11;;;;;;;73.63;51.45;;;19.30;78.30;;;;;;4941033;28;91070;-56
2022/10/25 00:22:37;;;;;;;73.50;51.45;;;19.30;78.40;;;;;;4932124;28;90456;-53
2022/10/25 00:25:06;;;;;;;74.43;51.10;;;19.30;78.40;;;;;;4922366;28;92544;-55
2022/10/25 00:27:32;;;;;;;72.22;51.03;;;19.30;78.40;;;;;;4944869;28;90219;-55
2022/10/25 00:29:57;;;;;;;71.93;50.72;;;19.30;78.40;;;;;;4937587;28;92514;-54
2022/10/25 00:32:23;;;;;;;72.43;50.83;;;19.30;78.50;;;;;;4941554;28;90462;-58
2022/10/25 00:34:49;;;;;;;74.45;50.88;;;19.30;78.50;;;;;;4933970;28;94656;-56
2022/10/25 00:37:15;;;;;;;73.78;51.33;;;19.30;78.30;;;;;;4943307;28;90219;-55
2022/10/25 00:39:40;;;;;;;72.32;50.90;;;19.30;78.40;;;;;;4948827;28;90327;-54
2022/10/25 00:42:08;;;;;;;73.57;51.00;;;19.30;78.30;;;;;;4950909;28;91476;-55
2022/10/25 00:44:39;;;;;;;73.75;50.90;;;19.30;78.30;;;;;;4943755;28;91205;-56
2022/10/25 00:47:05;;;;;;;73.45;50.85;;;19.30;78.20;;;;;;4943126;28;90643;-56
2022/10/25 00:49:32;;;;;;;72.55;50.97;;;19.30;78.40;;;;;;4945138;28;90662;-53
2022/10/25 00:52:01;;;;;;;71.55;50.92;;;19.30;78.20;;;;;;4954252;28;90686;-56
2022/10/25 00:54:35;;;;;;;72.45;50.92;;;19.30;78.20;;;;;;4948694;28;91353;-56
2022/10/25 00:57:08;;;;;;;72.35;51.05;;;19.30;78.20;;;;;;4948337;28;91195;-54
2022/10/25 00:59:34;;;;;;;73.75;51.08;;;19.30;78.20;;;;;;4944195;28;90434;-54
2022/10/25 01:02:00;;;;;;;72.57;51.33;;;19.20;78.10;;;;;;4946498;28;90351;-55
2022/10/25 01:04:29;;;;;;;73.57;51.15;;;19.20;78.10;;;;;;4942552;28;90009;-54
2022/10/25 01:06:55;;;;;;;72.80;50.75;;;19.20;78.10;;;;;;4964120;28;90341;-52
2022/10/25 01:09:27;;;;;;;72.72;51.30;;;19.20;78.10;;;;;;4948033;28;89987;-54
2022/10/25 01:11:52;;;;;;;73.32;50.95;;;19.20;78.10;;;;;;4948432;28;89206;-55
2022/10/25 01:14:19;;;;;;;73.72;51.17;;;19.20;78.10;;;;;;4956969;28;96017;-56
2022/10/25 01:16:52;;;;;;;73.07;51.00;;;19.20;78.10;;;;;;4946457;28;94188;-55
2022/10/25 01:19:33;;;;;;;73.40;50.58;;;19.20;78.10;;;;;;4943732;28;91919;-55
2022/10/25 01:22:10;;;;;;;72.22;50.72;;;19.20;78.10;;;;;;4947786;28;91146;-54
2022/10/25 01:24:56;;;;;;;72.38;51.10;;;19.20;78.00;;;;;;4938377;28;89770;-54
2022/10/25 01:27:37;;;;;;;71.78;50.88;;;19.20;78.10;;;;;;4940489;28;92186;-55
2022/10/25 01:30:19;;;;;;;73.53;51.05;;;19.20;78.10;;;;;;4938994;28;93401;-56
2022/10/25 01:33:18;;;;;;;72.80;51.35;;;19.20;78.10;;;;;;4945064;28;89913;-54
2022/10/25 01:36:10;;;;;;;73.65;50.78;;;19.20;78.10;;;;;;4943848;28;97021;-54
2022/10/25 01:38:53;;;;;;;72.05;50.92;;;19.20;78.00;;;;;;4954958;28;89352;-58
2022/10/25 01:41:30;;;;;;;71.82;50.85;;;19.20;78.00;;;;;;4944765;28;90834;-54
2022/10/25 01:44:35;;;;;;;72.30;50.78;;;19.20;78.00;;;;;;4945601;28;92805;-55
2022/10/25 01:47:17;;;;;;;72.72;50.85;;;19.20;78.00;;;;;;4935254;28;92567;-54
2022/10/25 01:49:49;;;;;;;72.40;50.97;;;19.20;78.10;;;;;;4944302;28;91370;-55
2022/10/25 01:52:19;;;;;;;72.47;50.90;;;19.20;78.00;;;;;;4945082;28;90063;-55
2022/10/25 01:54:45;;;;;;;72.32;50.92;;;19.20;78.00;;;;;;4947780;28;89634;-52
2022/10/25 01:57:20;;;;;;;72.10;50.95;;;19.20;78.00;;;;;;4942584;28;92112;-56
2022/10/25 02:00:01;;;;;;;72.13;50.85;;;19.20;78.00;;;;;;4938948;28;90098;-54
2022/10/25 02:02:39;;;;;;;74.43;50.97;;;19.10;77.90;;;;;;4942634;28;90353;-54
2022/10/25 02:05:16;;;;;;;71.75;50.90;;;19.10;77.90;;;;;;4938252;28;90081;-54
2022/10/25 02:07:49;;;;;;;71.40;50.75;;;19.10;77.90;;;;;;4947468;28;90242;-57
2022/10/25 02:10:29;;;;;;;72.05;50.63;;;19.10;77.80;;;;;;4952451;28;89863;-55
2022/10/25 02:13:06;;;;;;;73.03;50.93;;;19.10;77.90;;;;;;4944868;28;91563;-54
2022/10/25 02:15:39;;;;;;;72.57;50.78;;;19.10;77.90;;;;;;4938456;28;90430;-55
2022/10/25 02:18:11;;;;;;;71.90;50.83;;;19.10;77.90;;;;;;4941949;28;95569;-54
2022/10/25 02:20:39;;;;;;;72.00;50.88;;;19.10;77.80;;;;;;4945289;28;89903;-54
2022/10/25 02:23:05;;;;;;;72.03;50.70;;;19.10;77.80;;;;;;4944700;28;90130;-56
2022/10/25 02:25:33;;;;;;;71.90;50.70;;;19.10;78.00;;;;;;4944410;28;91873;-56
2022/10/25 02:28:04;;;;;;;72.95;50.70;;;19.10;77.90;;;;;;4946563;28;92236;-55
2022/10/25 02:30:32;;;;;;;72.20;50.53;;;19.10;77.80;;;;;;4939716;28;89302;-55
2022/10/25 02:32:57;;;;;;;72.43;50.55;;;19.10;77.90;;;;;;4949985;28;90344;-53
2022/10/25 02:35:23;;;;;;;72.18;50.88;;;19.10;77.80;;;;;;4944804;28;93090;-56
2022/10/25 02:37:49;;;;;;;71.35;50.70;;;19.10;77.90;;;;;;4942364;28;92825;-54
2022/10/25 02:40:15;;;;;;;72.20;50.83;;;19.10;77.90;;;;;;4950578;28;90812;-55
2022/10/25 02:42:41;;;;;;;72.10;50.35;;;19.10;78.00;;;;;;4919863;28;90654;-54
2022/10/25 02:45:07;;;;;;;75.07;51.08;;;19.10;77.90;;;;;;4942059;28;91918;-56
2022/10/25 02:47:32;;;;;;;73.18;50.85;;;19.10;77.90;;;;;;4944543;28;90316;-55
2022/10/25 02:49:58;;;;;;;72.50;50.50;;;19.10;77.90;;;;;;4941027;28;95419;-55
2022/10/25 02:52:24;;;;;;;71.50;50.70;;;19.00;78.10;;;;;;4942084;28;93092;-55
2022/10/25 02:54:49;;;;;;;72.32;50.47;;;19.00;78.00;;;;;;4946309;28;89431;-53
2022/10/25 02:57:15;;;;;;;71.80;50.58;;;19.00;77.80;;;;;;4938439;28;93107;-56
2022/10/25 02:59:40;;;;;;;72.68;51.13;;;19.00;77.90;;;;;;4946219;28;91258;-53
2022/10/25 03:02:06;;;;;;;71.90;51.03;;;19.00;77.90;;;;;;4942599;28;93813;-54
2022/10/25 03:04:32;;;;;;;72.10;50.75;;;19.00;77.90;;;;;;4952235;28;89826;-56
2022/10/25 03:06:57;;;;;;;71.47;50.70;;;19.00;77.90;;;;;;4943776;28;90770;-54
2022/10/25 03:09:23;;;;;;;74.65;50.78;;;19.00;77.90;;;;;;4927630;28;90285;-55
2022/10/25 03:11:49;;;;;;;72.15;50.75;;;19.00;77.90;;;;;;4939507;28;90600;-55
2022/10/25 03:14:14;;;;;;;71.00;50.53;;;19.00;77.90;;;;;;4939513;28;91352;-54
2022/10/25 03:16:40;;;;;;;72.43;50.70;;;19.00;77.90;;;;;;4957288;28;97059;-55
2022/10/25 03:19:06;;;;;;;73.25;50.55;;;19.00;77.90;;;;;;4950251;28;90429;-56
2022/10/25 03:21:31;;;;;;;72.00;50.75;;;18.90;77.90;;;;;;4931977;28;92396;-58
2022/10/25 03:23:57;;;;;;;71.30;50.97;;;19.00;78.00;;;;;;4933147;28;90134;-55
2022/10/25 03:26:23;;;;;;;71.55;50.80;;;19.00;77.90;;;;;;4946981;28;91041;-55
2022/10/25 03:28:49;;;;;;;72.28;50.63;;;18.90;77.90;;;;;;4951380;28;91034;-52
2022/10/25 03:31:16;;;;;;;71.30;50.88;;;18.90;78.60;;;;;;4955019;28;95605;-51
2022/10/25 03:33:43;;;;;;;71.95;51.40;;;18.90;77.90;;;;;;4945015;28;92185;-55
2022/10/25 03:36:09;;;;;;;71.32;50.55;;;18.90;78.00;;;;;;4947958;28;90740;-56
2022/10/25 03:38:35;;;;;;;72.55;50.65;;;18.90;78.00;;;;;;4948673;28;90335;-55
2022/10/25 03:41:01;;;;;;;71.88;50.70;;;18.90;78.00;;;;;;4941648;28;92388;-52
2022/10/25 03:43:26;;;;;;;73.05;50.85;;;18.90;78.00;;;;;;4954884;28;89311;-56
2022/10/25 03:45:52;;;;;;;71.57;50.90;;;18.90;78.00;;;;;;4940308;28;90812;-56
2022/10/25 03:48:18;;;;;;;71.57;50.75;;;18.90;78.00;;;;;;4936405;28;90101;-56
2022/10/25 03:50:43;;;;;;;71.07;50.97;;;18.90;78.10;;;;;;4940283;28;91045;-54
2022/10/25 03:53:10;;;;;;;71.45;50.50;;;18.90;78.00;;;;;;4948929;28;90769;-56
2022/10/25 03:55:36;;;;;;;73.00;50.55;;;18.90;78.00;;;;;;4953389;28;91247;-55
2022/10/25 03:58:02;;;;;;;71.72;50.40;;;18.90;78.00;;;;;;4943066;28;89992;-55
2022/10/25 04:00:28;;;;;;;71.28;50.38;;;18.90;78.00;;;;;;4944658;28;89887;-52
2022/10/25 04:02:58;;;;;;;72.90;50.45;;;18.80;77.90;;;;;;4944732;28;90002;-54
2022/10/25 04:05:24;;;;;;;71.35;50.38;;;18.80;78.00;;;;;;4938985;28;90611;-53
2022/10/25 04:07:50;;;;;;;71.50;50.42;;;18.80;78.00;;;;;;4948637;28;89912;-54
2022/10/25 04:10:18;;;;;;;71.22;50.80;;;18.90;78.00;;;;;;4948810;28;91802;-55
2022/10/25 04:12:44;;;;;;;74.15;51.15;;;18.80;78.10;;;;;;4956535;28;89877;-55
2022/10/25 04:15:10;;;;;;;71.47;50.28;;;18.80;78.00;;;;;;4950479;28;91407;-55
2022/10/25 04:17:35;;;;;;;71.45;50.33;;;18.80;78.00;;;;;;4930287;28;90886;-55
2022/10/25 04:20:01;;;;;;;72.35;50.40;;;18.80;78.00;;;;;;4943319;28;92242;-55
2022/10/25 04:22:27;;;;;;;71.75;50.55;;;18.90;78.10;;;;;;4952073;28;96325;-55
2022/10/25 04:24:52;;;;;;;72.18;50.72;;;18.90;78.00;;;;;;4945040;28;90509;-54
2022/10/25 04:27:18;;;;;;;73.13;50.75;;;18.90;78.00;;;;;;4960279;28;90321;-55
2022/10/25 04:29:43;;;;;;;71.53;50.35;;;18.90;78.10;;;;;;4949068;28;90064;-54
2022/10/25 04:32:09;;;;;;;71.70;50.65;;;18.80;78.10;;;;;;4953259;28;89771;-53
2022/10/25 04:34:35;;;;;;;71.65;50.70;;;18.80;78.10;;;;;;4948177;28;90541;-52
2022/10/25 04:37:01;;;;;;;71.35;50.20;;;18.80;78.10;;;;;;4944701;28;89972;-52
2022/10/25 04:39:27;;;;;;;72.25;50.63;;;18.80;78.20;;;;;;4953376;28;92243;-53
2022/10/25 04:41:52;;;;;;;73.15;50.33;;;18.80;78.00;;;;;;4943397;28;91078;-51
2022/10/25 04:44:18;;;;;;;72.13;50.63;;;18.80;78.10;;;;;;4949514;28;91324;-53
2022/10/25 04:46:44;;;;;;;72.82;50.30;;;18.80;78.10;;;;;;4958516;28;90648;-54
2022/10/25 04:49:13;;;;;;;71.90;50.53;;;18.80;78.10;;;;;;4942784;28;89887;-55
2022/10/25 04:51:39;;;;;;;73.53;50.72;;;18.80;78.20;;;;;;4939062;28;89891;-52
2022/10/25 04:54:05;;;;;;;72.50;50.53;;;18.80;78.00;;;;;;4940805;28;90446;-54
2022/10/25 04:56:31;;;;;;;74.57;50.53;;;18.80;77.80;;;;;;4951444;28;91295;-56
2022/10/25 04:58:57;;;;;;;71.82;50.30;;;18.80;77.80;;;;;;4949968;28;89862;-52
2022/10/25 05:01:24;;;;;;;72.90;50.83;;;18.80;78.00;;;;;;4952331;28;90146;-55
2022/10/25 05:03:49;;;;;;;73.90;50.67;;;18.80;77.90;;;;;;4946849;28;91631;-53
2022/10/25 05:06:24;;;;;;;73.22;50.80;;;18.80;77.90;;;;;;4956282;28;90197;-51
2022/10/25 05:08:51;;;;;;;71.88;50.20;;;18.80;77.90;;;;;;4951563;28;89927;-54
2022/10/25 05:11:19;;;;;;;72.65;51.13;;;18.80;77.90;;;;;;4949392;28;90090;-52
2022/10/25 05:13:45;;;;;;;71.90;50.58;;;18.80;77.80;;;;;;4945546;28;90450;-52
2022/10/25 05:16:20;;;;;;;72.20;50.33;;;18.80;77.80;;;;;;4949871;28;91496;-52
2022/10/25 05:18:46;;;;;;;72.82;50.55;;;18.80;78.00;;;;;;4952912;28;89548;-51
2022/10/25 05:21:13;;;;;;;73.40;50.42;;;18.80;77.90;;;;;;4955395;28;89165;-54
2022/10/25 05:23:38;;;;;;;72.97;50.58;;;18.80;77.90;;;;;;4945478;28;89546;-52
2022/10/25 05:26:06;;;;;;;72.40;50.88;;;18.80;77.90;;;;;;4944439;28;95208;-52
2022/10/25 05:28:33;;;;;;;72.35;50.47;;;18.70;77.90;;;;;;4954031;28;90885;-51
2022/10/25 05:31:21;;;;;;;72.72;50.67;;;18.70;77.90;;;;;;4950849;28;90477;-52
2022/10/25 05:33:56;;;;;;;71.22;50.15;;;18.80;78.00;;;;;;4936033;28;92136;-52
2022/10/25 05:36:21;;;;;;;71.18;50.38;;;18.70;77.90;;;;;;4936805;28;91691;-53
2022/10/25 05:38:47;;;;;;;73.20;51.47;;;18.70;77.90;;;;;;4945508;28;92840;-53
2022/10/25 05:41:15;;;;;;;73.10;50.97;;;18.70;77.90;;;;;;4945563;28;95314;-55
2022/10/25 05:43:42;;;;;;;72.43;50.50;;;18.70;77.90;;;;;;4936852;28;90913;-54
2022/10/25 05:46:11;;;;;;;71.90;50.70;;;18.70;77.80;;;;;;4951126;28;90930;-53
2022/10/25 05:48:38;;;;;;;72.28;50.65;;;18.70;77.80;;;;;;4945883;28;93015;-53
2022/10/25 05:51:25;;;;;;;72.43;50.45;;;18.70;77.90;;;;;;4947109;28;91079;-53
2022/10/25 05:53:52;;;;;;;70.97;50.42;;;18.80;77.90;;;;;;4946379;28;90752;-54
2022/10/25 05:56:20;;;;;;;71.80;50.22;;;18.70;77.80;;;;;;4944717;28;93972;-55
2022/10/25 05:58:46;;;;;;;73.22;50.65;;;18.70;77.80;;;;;;4935143;28;90392;-53
2022/10/25 06:01:14;;;;;;;73.05;50.45;;;18.70;77.80;;;;;;4938608;28;90868;-55
2022/10/25 06:03:40;;;;;;;72.95;50.63;;;18.70;77.80;;;;;;4953995;28;89856;-52
2022/10/25 06:06:08;;;;;;;71.97;50.60;;;18.70;77.80;;;;;;4953677;28;90230;-55
2022/10/25 06:08:34;;;;;;;73.43;50.63;;;18.80;77.90;;;;;;4940174;28;93999;-53
2022/10/25 06:11:03;;;;;;;72.90;50.83;;;18.70;77.90;;;;;;4940235;28;89238;-53
2022/10/25 06:13:29;;;;;;;72.93;50.90;;;18.70;77.90;;;;;;4950229;28;91552;-54
2022/10/25 06:15:54;;;;;;;73.60;50.45;;;18.70;77.90;;;;;;4948466;28;89900;-54
2022/10/25 06:18:20;;;;;;;71.32;50.47;;;18.80;77.90;;;;;;4948633;28;90581;-54
2022/10/25 06:20:46;;;;;;;73.13;50.70;;;18.80;77.90;;;;;;4937878;28;89916;-54
2022/10/25 06:23:11;;;;;;;71.93;50.45;;;18.80;78.00;;;;;;4947594;28;94312;-50
2022/10/25 06:25:37;;;;;;;71.55;50.65;;;18.80;78.00;;;;;;4946498;28;96357;-51
2022/10/25 06:28:03;;;;;;;72.95;50.42;;;18.80;77.90;;;;;;4947341;28;90293;-53
2022/10/25 06:30:30;;;;;;;72.13;50.55;;;18.80;78.00;;;;;;4947311;28;90776;-54
2022/10/25 06:32:55;;;;;;;72.85;50.83;;;18.80;77.90;;;;;;4945726;28;90472;-54
2022/10/25 06:35:21;;;;;;;72.32;50.65;;;18.70;77.90;;;;;;4942948;28;89312;-51
2022/10/25 06:37:47;;;;;;;73.28;50.35;;;18.70;78.00;;;;;;4941970;28;89823;-55
2022/10/25 06:40:12;;;;;;;73.03;50.97;;;18.70;77.90;;;;;;4920033;28;93986;-55
2022/10/25 06:42:38;;;;;;;71.80;50.58;;;18.70;77.90;;;;;;4888586;28;95730;-57
2022/10/25 06:45:04;;;;;;;73.90;50.80;;;18.70;77.90;;;;;;4939015;28;91566;-54
2022/10/25 06:47:30;;;;;;;74.25;50.60;;;18.70;78.00;;;;;;4938303;28;89963;-56
2022/10/25 06:49:55;;;;;;;71.88;50.55;;;18.70;77.90;;;;;;4940080;28;94882;-56
2022/10/25 06:52:21;;;;;;;73.55;50.60;;;18.70;78.60;;;;;;4931384;28;90349;-55
2022/10/25 06:54:47;;;;;;;73.40;51.05;;;18.70;77.90;;;;;;4933238;28;91797;-57
2022/10/25 06:57:12;;;;;;;71.88;50.55;;;18.70;77.90;;;;;;4943435;28;90095;-54
2022/10/25 06:59:38;;;;;;;72.32;50.65;;;18.70;77.90;;;;;;4935430;28;89569;-53
2022/10/25 07:02:03;;;;;;;73.63;51.33;;;18.70;77.90;;;;;;4948477;28;90863;-55
2022/10/25 07:04:31;;;;;;;73.70;50.72;;;18.70;77.80;;;;;;4947565;28;91870;-54
2022/10/25 07:06:57;;;;;;;72.13;50.70;;;18.70;77.60;;;;;;4938273;28;91979;-50
2022/10/25 07:09:24;;;;;;;72.03;50.58;;;18.70;77.80;;;;;;4929954;28;90699;-55
2022/10/25 07:11:50;;;;;;;72.35;51.22;;;18.70;77.80;;;;;;4946543;28;91422;-54
2022/10/25 07:14:15;;;;;;;73.95;50.90;;;18.70;77.70;;;;;;4950538;28;90101;-53
2022/10/25 07:16:41;;;;;;;72.13;50.80;;;18.70;77.70;;;;;;4944904;28;91500;-53
2022/10/25 07:19:07;;;;;;;73.05;51.22;;;18.70;77.60;;;;;;4932606;28;94607;-50
2022/10/25 07:21:33;;;;;;;72.28;50.50;;;18.70;77.70;;;;;;4959488;28;90402;-54
2022/10/25 07:23:59;;;;;;;71.55;50.75;;;18.70;77.60;;;;;;4936632;28;90091;-55
2022/10/25 07:26:30;;;;;;;71.50;50.63;;;18.70;77.60;;;;;;4945214;28;89893;-56
2022/10/25 07:28:57;;;;;;;71.25;50.95;;;18.70;77.60;;;;;;4941774;28;94942;-53
2022/10/25 07:31:25;;;;;;;73.28;50.75;;;18.70;77.60;;;;;;4948420;28;92630;-52
2022/10/25 07:33:52;;;;;;;72.65;50.97;;;18.70;77.60;;;;;;4937604;28;92171;-55
2022/10/25 07:36:19;;;;;;;72.82;51.05;;;18.70;77.50;;;;;;4945483;28;90016;-54
2022/10/25 07:38:45;;;;;;;71.85;50.97;;;18.70;77.50;;;;;;4950118;28;91021;-55
2022/10/25 07:41:11;;;;;;;72.40;50.70;;;18.70;77.50;;;;;;4963760;28;92909;-51
2022/10/25 07:43:37;;;;;;;71.63;50.42;;;18.70;77.50;;;;;;4951823;28;90939;-54
2022/10/25 07:46:03;;;;;;;71.40;50.53;;;18.70;77.50;;;;;;4953362;28;89643;-51
2022/10/25 07:48:28;;;;;;;71.20;50.63;;;18.70;77.50;;;;;;4954442;28;91443;-57
2022/10/25 07:50:54;;;;;;;74.30;50.55;;;18.70;77.40;;;;;;4956455;28;90783;-55
2022/10/25 07:53:20;;;;;;;74.07;50.80;;;18.70;77.40;;;;;;4957825;28;90932;-52
2022/10/25 07:55:53;;;;;;;73.20;51.08;;;18.70;77.40;;;;;;4952222;28;92482;-54
2022/10/25 07:58:19;;;;;;;72.68;50.60;;;18.70;77.30;;;;;;4953150;28;95232;-54
2022/10/25 08:00:45;;;;;;;74.10;50.60;;;18.70;77.50;;;;;;4956614;28;90931;-51
2022/10/25 08:03:12;;;;;;;71.80;50.65;;;18.70;77.40;;;;;;4945476;28;89870;-55
2022/10/25 08:05:38;;;;;;;74.22;50.92;;;18.70;77.30;;;;;;4943965;28;90504;-53
2022/10/25 08:08:04;;;;;;;72.95;50.53;;;18.70;77.30;;;;;;4959517;28;93232;-53
2022/10/25 08:10:30;;;;;;;72.22;50.28;;;18.70;77.30;;;;;;4949676;28;90507;-55
2022/10/25 08:12:56;;;;;;;71.40;50.33;;;18.70;77.00;;;;;;4955719;28;89518;-55
2022/10/25 08:15:22;;;;;;;72.00;50.35;;;18.80;77.00;;;;;;4949583;28;90204;-55
2022/10/25 08:17:55;;;;;;;73.70;50.85;;;18.80;76.90;;;;;;4953807;28;92155;-55
2022/10/25 08:20:21;;;;;;;72.82;50.65;;;18.80;76.80;;;;;;4947039;28;92947;-55
2022/10/25 08:22:46;;;;;;;71.47;50.63;;;18.80;76.70;;;;;;4951405;28;90883;-51
2022/10/25 08:25:12;;;;;;;71.63;50.78;;;18.80;76.60;;;;;;4946860;28;89724;-56
2022/10/25 08:27:40;;;;;;;72.30;50.58;;;18.80;76.50;;;;;;4958284;28;89427;-56
2022/10/25 08:30:06;;;;;;;73.63;50.92;;;18.80;76.60;;;;;;4947363;28;92218;-54
2022/10/25 08:32:35;;;;;;;71.72;50.85;;;18.90;76.50;;;;;;4951682;28;90572;-55
2022/10/25 08:35:01;;;;;;;71.43;50.78;;;18.80;76.50;;;;;;4945443;28;89767;-51
2022/10/25 08:37:27;;;;;;;71.75;50.95;;;18.80;76.60;;;;;;4958676;28;88776;-52
2022/10/25 08:39:52;;;;;;;72.32;50.47;;;18.80;76.60;;;;;;4949644;28;91009;-52
2022/10/25 08:42:48;;;;;;;71.93;50.83;;;18.80;76.80;;;;;;4955593;28;89919;-54
2022/10/25 08:45:24;;;;;;;73.15;50.83;;;18.90;76.90;;;;;;4933310;28;93638;-51
2022/10/25 08:47:52;;;;;;;71.53;50.83;;;18.90;76.80;;;;;;4953811;28;90555;-54
2022/10/25 08:50:23;;;;;;;72.25;51.10;;;18.90;76.70;;;;;;4952389;28;90310;-52
2022/10/25 08:52:58;;;;;;;71.35;50.35;;;18.90;76.70;;;;;;4947460;28;95033;-51
2022/10/25 08:55:33;;;;;;;70.90;50.75;;;18.90;76.70;;;;;;4960960;28;89902;-51
2022/10/25 08:58:01;;;;;;;72.82;50.67;;;19.00;76.70;;;;;;4953782;28;90044;-53
2022/10/25 09:00:35;;;;;;;70.78;50.38;;;19.00;76.60;;;;;;4949419;28;91934;-54
2022/10/25 09:03:01;;;;;;;72.18;50.58;;;19.00;76.60;;;;;;4957175;28;90595;-54
2022/10/25 09:06:07;;;;;;;72.28;50.63;;;19.00;76.50;;;;;;4954840;28;90024;-53
2022/10/25 09:08:42;;;;;;;71.75;50.50;;;19.00;76.70;;;;;;4961680;28;90044;-56
2022/10/25 09:11:26;;;;;;;71.00;50.42;;;19.00;76.50;;;;;;4941649;28;91986;-53
2022/10/25 09:14:03;;;;;;;71.97;50.65;;;19.10;76.70;;;;;;4948659;28;90822;-54
2022/10/25 09:16:50;;;;;;;71.43;50.55;;;19.10;76.50;;;;;;4945752;28;93110;-53
2022/10/25 09:19:22;;;;;;;72.55;50.67;;;19.10;76.50;;;;;;4955192;28;90494;-56
2022/10/25 09:22:24;;;;;;;74.28;50.90;;;19.10;76.70;;;;;;4946983;28;94973;-55
2022/10/25 09:25:17;;;;;;;76.07;51.15;;;19.10;76.90;;;;;;4946864;28;90969;-54
2022/10/25 09:27:48;;;;;;;72.60;50.75;;;19.20;76.90;;;;;;4949396;28;90973;-54
2022/10/25 09:30:14;;;;;;;73.10;51.20;;;19.20;76.90;;;;;;4946614;28;90366;-55
2022/10/25 09:32:48;;;;;;;73.25;50.70;;;19.20;77.00;;;;;;4961697;28;89964;-52
2022/10/25 09:35:15;;;;;;;592.67;452.65;;;19.20;77.20;;;;;;4947382;28;91688;-54
2022/10/25 09:37:47;;;;;;;304.38;214.68;;;19.20;78.30;;;;;;4941360;28;92964;-55
2022/10/25 09:40:22;;;;;;;205.45;133.90;;;19.20;78.30;;;;;;4948890;28;93288;-53
2022/10/25 09:43:05;;;;;;;161.38;105.95;;;19.20;77.90;;;;;;4947090;28;95049;-56
2022/10/25 09:45:42;;;;;;;286.00;196.38;;;19.20;78.30;;;;;;4952248;28;90404;-51
2022/10/25 09:48:15;;;;;;;183.25;124.55;;;19.20;78.70;;;;;;4952010;28;93070;-52
2022/10/25 09:50:50;;;;;;;140.95;98.57;;;19.20;78.10;;;;;;4957437;28;89536;-56
2022/10/25 09:53:17;;;;;;;141.43;97.30;;;19.20;77.70;;;;;;4943768;28;90981;-54
2022/10/25 09:55:51;;;;;;;125.30;90.05;;;19.20;77.80;;;;;;4946410;28;89436;-54
2022/10/25 09:58:26;;;;;;;125.93;85.35;;;19.20;77.70;;;;;;4953646;28;89788;-54
2022/10/25 10:00:54;;;;;;;112.78;78.90;;;19.20;77.50;;;;;;4948652;28;91820;-54
2022/10/25 10:03:21;;;;;;;105.10;73.45;;;19.20;77.40;;;;;;4953743;28;91800;-52
2022/10/25 10:06:00;;;;;;;104.82;70.72;;;19.30;77.10;;;;;;4954640;28;94581;-55
2022/10/25 10:08:27;;;;;;;97.72;67.68;;;19.30;77.10;;;;;;4952032;28;90510;-53
2022/10/25 10:10:54;;;;;;;92.53;64.15;;;19.30;76.80;;;;;;4951330;28;91418;-54
2022/10/25 10:13:40;;;;;;;93.47;64.07;;;19.30;76.90;;;;;;4948660;28;90099;-56
2022/10/25 10:16:37;;;;;;;88.82;61.22;;;19.30;77.00;;;;;;4948653;28;89707;-55
2022/10/25 10:19:18;;;;;;;89.00;60.30;;;19.30;76.70;;;;;;4956715;28;89840;-54
2022/10/25 10:21:59;;;;;;;88.93;60.88;;;19.30;76.70;;;;;;4948017;28;91915;-53
2022/10/25 10:24:33;;;;;;;84.75;59.65;;;19.30;76.70;;;;;;4951284;28;91928;-53
2022/10/25 10:27:04;;;;;;;89.85;59.50;;;19.40;76.40;;;;;;4950120;28;93366;-54
2022/10/25 10:29:35;;;;;;;88.03;58.20;;;19.40;76.30;;;;;;4961152;28;90858;-54
2022/10/25 10:32:21;;;;;;;87.53;57.72;;;19.40;76.20;;;;;;4948944;28;90135;-56
2022/10/25 10:34:55;;;;;;;86.32;57.03;;;19.40;75.90;;;;;;4952911;28;90645;-56
2022/10/25 10:37:26;;;;;;;84.10;56.55;;;19.40;76.00;;;;;;4947862;28;89996;-54
2022/10/25 10:39:54;;;;;;;87.90;58.15;;;19.40;76.00;;;;;;4948190;28;90030;-51
2022/10/25 10:42:30;;;;;;;92.43;59.53;;;19.40;75.90;;;;;;4951219;28;89937;-53
2022/10/25 10:45:14;;;;;;;92.85;58.63;;;19.40;75.90;;;;;;4958377;28;90466;-54
2022/10/25 10:47:48;;;;;;;89.85;57.83;;;19.50;75.60;;;;;;4954697;28;90309;-54
2022/10/25 10:50:23;;;;;;;92.28;58.88;;;19.50;75.50;;;;;;4956349;28;95893;-54
2022/10/25 10:53:00;;;;;;;90.18;58.03;;;19.60;75.30;;;;;;4947791;28;91782;-52
2022/10/25 10:55:36;;;;;;;89.30;57.67;;;19.60;75.40;;;;;;4947031;28;91308;-52
2022/10/25 10:58:11;;;;;;;89.60;57.95;;;19.60;75.20;;;;;;4948999;28;91765;-52
2022/10/25 11:00:37;;;;;;;95.18;58.85;;;19.70;74.90;;;;;;4958597;28;89843;-55
2022/10/25 11:03:03;;;;;;;91.18;57.85;;;19.70;74.80;;;;;;4956503;28;89547;-55
2022/10/25 11:05:30;;;;;;;86.43;57.00;;;19.70;74.90;;;;;;4959406;28;94943;-52
2022/10/25 11:08:15;;;;;;;85.15;56.10;;;19.70;74.60;;;;;;4948280;28;89841;-56
2022/10/25 11:10:41;;;;;;;87.15;56.63;;;19.70;74.60;;;;;;4951390;28;90225;-52
2022/10/25 11:13:12;;;;;;;83.43;55.97;;;19.70;74.70;;;;;;4944877;28;89230;-58
2022/10/25 11:16:10;;;;;;;84.97;56.17;;;19.70;74.50;;;;;;4956417;28;90445;-51
2022/10/25 11:18:47;;;;;;;85.18;55.70;;;19.70;74.50;;;;;;4951179;28;90068;-54
2022/10/25 11:21:50;;;;;;;87.82;57.05;;;19.80;74.50;;;;;;4954936;28;90715;-55
2022/10/25 11:24:41;;;;;;;91.43;57.33;;;19.80;74.70;;;;;;4947372;28;91510;-56
2022/10/25 11:27:25;;;;;;;87.75;56.92;;;19.80;74.60;;;;;;4950260;28;90900;-56
2022/10/25 11:30:17;;;;;;;89.32;57.25;;;19.80;74.60;;;;;;4949651;28;93160;-51
2022/10/25 11:33:01;;;;;;;88.10;56.80;;;19.90;74.90;;;;;;4949385;28;90100;-51
2022/10/25 11:35:47;;;;;;;90.07;56.03;;;19.90;76.00;;;;;;4951430;28;90257;-54
2022/10/25 11:38:54;;;;;;;85.07;55.88;;;19.90;75.30;;;;;;4951494;28;91712;-52
2022/10/25 11:41:47;;;;;;;91.53;56.15;;;19.90;75.40;;;;;;4951885;28;92523;-54
2022/10/25 11:44:46;;;;;;;87.40;56.35;;;19.90;75.40;;;;;;4951604;28;89954;-54
2022/10/25 11:47:57;;;;;;;87.45;55.88;;;20.00;75.50;;;;;;4942744;28;89969;-54
2022/10/25 11:51:07;;;;;;;88.97;56.10;;;20.00;75.40;;;;;;4948084;28;91841;-51
2022/10/25 11:54:13;;;;;;;82.90;55.08;;;20.00;75.40;;;;;;4950293;28;90961;-55
2022/10/25 11:56:47;;;;;;;88.18;56.15;;;20.10;75.50;;;;;;4941043;28;90269;-53
2022/10/25 11:59:24;;;;;;;86.43;55.55;;;20.00;75.60;;;;;;4952237;28;89653;-49
2022/10/25 12:02:07;;;;;;;90.07;55.58;;;20.00;75.60;;;;;;4955004;28;90950;-52
2022/10/25 12:04:57;;;;;;;85.15;54.78;;;20.10;75.50;;;;;;4950858;28;90333;-50
2022/10/25 12:07:50;;;;;;;83.57;55.85;;;20.10;75.40;;;;;;4951194;28;92032;-52
2022/10/25 12:10:50;;;;;;;84.13;55.22;;;20.20;75.50;;;;;;4953609;28;89059;-54
2022/10/25 12:13:31;;;;;;;83.95;54.70;;;20.20;75.40;;;;;;4939818;28;90445;-53
2022/10/25 12:15:58;;;;;;;83.60;55.17;;;20.20;75.50;;;;;;4955774;28;89547;-54
2022/10/25 12:18:30;;;;;;;85.18;54.92;;;20.20;75.50;;;;;;4959627;28;91607;-54
2022/10/25 12:20:57;;;;;;;84.03;54.30;;;20.20;75.40;;;;;;4956142;28;92399;-55
2022/10/25 12:23:25;;;;;;;81.75;54.25;;;20.20;75.40;;;;;;4957289;28;90040;-53
2022/10/25 12:26:00;;;;;;;84.35;54.83;;;20.30;75.40;;;;;;4949932;28;90283;-53
2022/10/25 12:28:43;;;;;;;83.80;54.45;;;20.30;75.60;;;;;;4953807;28;89823;-54
2022/10/25 12:31:24;;;;;;;81.10;54.92;;;20.30;76.30;;;;;;4955845;28;91694;-50
2022/10/25 12:34:02;;;;;;;80.68;54.20;;;20.30;76.50;;;;;;4943301;28;90352;-53
2022/10/25 12:36:53;;;;;;;83.32;54.58;;;20.30;76.90;;;;;;4952951;28;89114;-51
2022/10/25 12:39:21;;;;;;;84.30;54.60;;;20.30;77.30;;;;;;4960682;28;90011;-49
2022/10/25 12:41:52;;;;;;;83.53;55.13;;;20.30;77.60;;;;;;4958276;28;89986;-52
2022/10/25 12:44:36;;;;;;;;;;;20.30;77.60;;;;;;4956376;28;91606;-52
2022/10/25 12:47:28;;;;;;;83.22;54.17;;;20.30;77.80;;;;;;4957570;28;90396;-52